Auburn, Mississippi
Current Conditions -  °F | °C
As of 9:53 PM on Wednesday 22 Oct 2014 (Local Time) from KMCB Reporting Station
Clear Clear  
Wind Chill: 16°   Ceiling: Unl
Heat Index: 16°   Visibility: 10mi
Dew Point: 10°   Wind: 5mph
Humidity: 67%   Direction: 360°N
Pressure: 30.11"   Gusts: NA
Location:  31.3682°N, 90.6714°W
Report Text: KMCB 230253Z AUTO 36004KT 10SM CLR 16/10 A3011 RMK AO2 SLP192 T01610100 53014
Loading
Personal Weather Stations






























Interactive Weather Map
Tropical Storm Tracking
New forecast layout! Learn more

10-Day Weather Forecast

Advertisements
Track Severe Weather on mobile